createdAt,value
2019-05-19T00:00:43.509Z,9.80
2019-05-19T00:03:14.242Z,8.37
2019-05-19T00:05:45.033Z,8.30
2019-05-19T00:08:15.719Z,7.50
2019-05-19T00:10:46.465Z,7.30
2019-05-19T00:13:17.131Z,7.63
2019-05-19T00:15:47.807Z,7.87
2019-05-19T00:18:18.552Z,8.77
2019-05-19T00:20:49.260Z,8.00
2019-05-19T00:23:19.999Z,8.60
2019-05-19T00:25:50.763Z,7.63
2019-05-19T00:28:21.433Z,8.53
2019-05-19T00:30:52.204Z,8.00
2019-05-19T00:33:22.851Z,8.47
2019-05-19T00:35:53.588Z,8.53
2019-05-19T00:38:24.324Z,9.20
2019-05-19T00:40:55.091Z,8.93
2019-05-19T00:43:25.788Z,8.37
2019-05-19T00:45:56.542Z,9.47
2019-05-19T00:48:27.259Z,9.07
2019-05-19T00:50:57.965Z,9.07
2019-05-19T00:53:28.745Z,9.03
2019-05-19T00:56:01.903Z,9.27
2019-05-19T00:58:34.606Z,8.50
2019-05-19T01:01:05.375Z,9.00
2019-05-19T01:03:36.110Z,9.47
2019-05-19T01:06:06.894Z,9.17
2019-05-19T01:08:37.624Z,9.40
2019-05-19T01:11:08.419Z,9.70
2019-05-19T01:13:39.144Z,9.17
2019-05-19T01:16:09.899Z,8.27
2019-05-19T01:18:40.676Z,8.80
2019-05-19T01:21:11.643Z,9.17
2019-05-19T01:23:42.350Z,8.23
2019-05-19T01:26:13.163Z,8.67
2019-05-19T01:28:43.882Z,8.60
2019-05-19T01:31:14.628Z,8.83
2019-05-19T01:33:45.343Z,8.67
2019-05-19T01:36:16.109Z,9.57
2019-05-19T01:38:46.830Z,10.93
2019-05-19T01:41:17.524Z,9.73
2019-05-19T01:43:48.191Z,10.47
2019-05-19T01:46:18.856Z,10.30
2019-05-19T01:48:49.604Z,11.20
2019-05-19T01:51:20.377Z,9.80
2019-05-19T01:53:51.088Z,10.73
2019-05-19T01:56:21.822Z,9.33
2019-05-19T01:58:52.497Z,8.73
2019-05-19T02:01:23.215Z,11.37
2019-05-19T02:03:53.960Z,9.93
2019-05-19T02:06:24.647Z,11.60
2019-05-19T02:08:55.363Z,10.10
2019-05-19T02:11:26.155Z,10.73
2019-05-19T02:13:56.824Z,10.00
2019-05-19T02:16:27.573Z,10.60
2019-05-19T02:18:58.328Z,10.73
2019-05-19T02:21:29.087Z,10.80
2019-05-19T02:23:59.813Z,10.37
2019-05-19T02:26:30.560Z,10.93
2019-05-19T02:29:01.284Z,10.00
2019-05-19T02:31:31.999Z,10.43
2019-05-19T02:34:02.769Z,9.97
2019-05-19T02:36:33.453Z,9.40
2019-05-19T02:39:06.090Z,9.00
2019-05-19T02:41:39.541Z,8.33
2019-05-19T02:44:12.004Z,7.83
2019-05-19T02:46:42.850Z,7.50
2019-05-19T02:49:15.357Z,7.57
2019-05-19T02:51:49.795Z,7.87
2019-05-19T02:54:21.352Z,7.80
2019-05-19T02:56:52.581Z,8.43
2019-05-19T02:59:24.892Z,8.27
2019-05-19T03:02:07.765Z,9.00
2019-05-19T03:04:38.461Z,7.90
2019-05-19T03:07:09.194Z,8.70
2019-05-19T03:09:39.949Z,9.37
2019-05-19T03:12:10.667Z,8.97
2019-05-19T03:14:41.424Z,9.13
2019-05-19T03:17:12.174Z,9.17
2019-05-19T03:19:43.006Z,8.83
2019-05-19T03:22:13.802Z,8.97
2019-05-19T03:24:44.560Z,9.23
2019-05-19T03:27:15.306Z,8.30
2019-05-19T03:29:50.723Z,8.47
2019-05-19T03:32:40.394Z,9.37
2019-05-19T03:35:11.161Z,8.00
2019-05-19T03:37:41.868Z,7.67
2019-05-19T03:40:21.771Z,7.80
2019-05-19T03:42:52.554Z,8.00
2019-05-19T03:45:23.248Z,7.67
2019-05-19T03:47:53.893Z,8.10
2019-05-19T03:50:24.659Z,9.07
2019-05-19T03:52:55.406Z,8.07
2019-05-19T03:55:26.183Z,8.07
2019-05-19T03:57:56.930Z,7.77
2019-05-19T04:00:27.664Z,8.17
2019-05-19T04:02:58.372Z,8.23
2019-05-19T04:05:29.118Z,9.10
2019-05-19T04:07:59.823Z,8.30
2019-05-19T04:10:30.532Z,7.43
2019-05-19T04:13:01.257Z,8.10
2019-05-19T04:15:32.013Z,9.57
2019-05-19T04:18:02.759Z,8.87
2019-05-19T04:20:33.517Z,8.83
2019-05-19T04:23:04.241Z,8.40
2019-05-19T04:25:35.000Z,8.57
2019-05-19T04:28:05.726Z,8.37
2019-05-19T04:30:36.442Z,7.07
2019-05-19T04:33:07.209Z,7.93
2019-05-19T04:35:37.956Z,7.87
2019-05-19T04:38:08.690Z,8.47
2019-05-19T04:40:39.410Z,8.23
2019-05-19T04:43:10.158Z,7.33
2019-05-19T04:45:40.918Z,7.50
2019-05-19T04:48:11.546Z,7.63
2019-05-19T04:50:42.313Z,7.80
2019-05-19T04:53:13.020Z,7.53
2019-05-19T04:55:43.795Z,7.77
2019-05-19T04:58:14.511Z,8.10
2019-05-19T05:00:45.257Z,8.63
2019-05-19T05:03:15.944Z,8.50
2019-05-19T05:05:46.619Z,8.00
2019-05-19T05:08:28.847Z,8.03
2019-05-19T05:10:49.713Z,8.87
2019-05-19T05:13:20.488Z,8.60
2019-05-19T05:15:51.196Z,8.37
2019-05-19T05:18:21.962Z,7.83
2019-05-19T05:20:52.707Z,8.07
2019-05-19T05:23:23.433Z,8.23
2019-05-19T05:25:54.201Z,8.60
2019-05-19T05:28:24.917Z,8.80
2019-05-19T05:30:55.953Z,8.93
2019-05-19T05:33:26.720Z,9.93
2019-05-19T05:35:57.526Z,10.23
2019-05-19T05:38:28.311Z,10.43
2019-05-19T05:40:59.097Z,10.70
2019-05-19T05:43:29.874Z,9.37
2019-05-19T05:46:00.690Z,10.30
2019-05-19T05:48:31.486Z,9.53
2019-05-19T05:51:02.314Z,10.43
2019-05-19T05:53:33.071Z,11.47
2019-05-19T05:56:03.860Z,11.00
2019-05-19T05:58:34.632Z,11.03
2019-05-19T06:01:05.419Z,11.87
2019-05-19T06:03:36.224Z,11.93
2019-05-19T06:06:07.002Z,12.13
2019-05-19T06:08:37.868Z,14.50
2019-05-19T06:11:08.606Z,14.70
2019-05-19T06:13:39.421Z,12.97
2019-05-19T06:16:10.240Z,13.63
2019-05-19T06:18:41.112Z,13.70
2019-05-19T06:21:11.908Z,14.07
2019-05-19T06:23:42.725Z,14.77
2019-05-19T06:26:13.522Z,13.50
2019-05-19T06:28:44.327Z,13.20
2019-05-19T06:31:15.051Z,12.90
2019-05-19T06:33:45.871Z,12.33
2019-05-19T06:36:16.627Z,11.80
2019-05-19T06:38:47.459Z,12.70
2019-05-19T06:41:18.150Z,12.90
2019-05-19T06:43:48.927Z,13.10
2019-05-19T06:46:19.681Z,13.60
2019-05-19T06:48:50.539Z,14.50
2019-05-19T06:51:21.264Z,14.07
2019-05-19T06:53:52.381Z,15.80
2019-05-19T06:56:23.168Z,16.23
2019-05-19T06:58:53.994Z,16.73
2019-05-19T07:01:24.760Z,17.33
2019-05-19T07:03:55.577Z,18.40
2019-05-19T07:06:26.365Z,15.83
2019-05-19T07:08:57.151Z,16.60
2019-05-19T07:11:27.958Z,17.57
2019-05-19T07:13:58.768Z,17.30
2019-05-19T07:16:29.468Z,18.93
2019-05-19T07:19:00.327Z,19.63
2019-05-19T07:21:31.022Z,17.97
2019-05-19T07:24:01.846Z,17.43
2019-05-19T07:26:32.642Z,16.47
2019-05-19T07:29:03.430Z,17.77
2019-05-19T07:31:34.205Z,17.57
2019-05-19T07:34:04.986Z,18.23
2019-05-19T07:36:35.738Z,17.80
2019-05-19T07:39:07.896Z,16.50
2019-05-19T07:41:38.611Z,16.63
2019-05-19T07:44:09.418Z,15.23
2019-05-19T07:46:40.252Z,16.40
2019-05-19T07:49:11.021Z,15.00
2019-05-19T07:51:41.812Z,15.13
2019-05-19T07:54:12.582Z,15.90
2019-05-19T07:56:43.360Z,15.43
2019-05-19T07:59:14.169Z,15.07
2019-05-19T08:01:44.922Z,14.50
2019-05-19T08:04:15.689Z,15.20
2019-05-19T08:06:46.477Z,14.90
2019-05-19T08:09:17.410Z,14.47
2019-05-19T08:11:48.276Z,14.63
2019-05-19T08:14:19.092Z,13.60
2019-05-19T08:16:49.980Z,13.37
2019-05-19T08:19:20.905Z,12.87
2019-05-19T08:21:51.743Z,12.83
2019-05-19T08:24:22.614Z,12.90
2019-05-19T08:26:53.515Z,13.20
2019-05-19T08:29:24.382Z,13.50
2019-05-19T08:31:55.349Z,15.40
2019-05-19T08:34:26.143Z,14.73
2019-05-19T08:36:57.013Z,14.10
2019-05-19T08:39:27.921Z,15.13
2019-05-19T08:41:58.863Z,14.70
2019-05-19T08:44:29.738Z,14.80
2019-05-19T08:47:00.605Z,14.73
2019-05-19T08:49:31.472Z,14.20
2019-05-19T08:52:02.227Z,12.63
2019-05-19T08:54:34.304Z,13.97
2019-05-19T08:57:05.151Z,12.67
2019-05-19T08:59:35.947Z,12.23
2019-05-19T09:02:06.783Z,12.30
2019-05-19T09:04:37.590Z,12.07
2019-05-19T09:07:08.426Z,11.50
2019-05-19T09:09:39.223Z,10.67
2019-05-19T09:12:10.050Z,11.03
2019-05-19T09:14:41.967Z,11.50
2019-05-19T09:17:12.823Z,10.90
2019-05-19T09:19:43.669Z,11.50
2019-05-19T09:22:14.485Z,11.80
2019-05-19T09:24:45.311Z,11.40
2019-05-19T09:27:16.232Z,10.77
2019-05-19T09:29:47.044Z,10.90
2019-05-19T09:32:18.330Z,11.23
2019-05-19T09:34:49.108Z,9.33
2019-05-19T09:37:20.313Z,9.03
2019-05-19T09:39:51.440Z,10.97
2019-05-19T09:42:22.146Z,9.37
2019-05-19T09:44:52.883Z,8.07
2019-05-19T09:47:23.789Z,9.07
2019-05-19T09:49:54.626Z,10.00
2019-05-19T09:52:25.542Z,9.23
2019-05-19T09:54:56.347Z,8.43
2019-05-19T09:57:29.563Z,8.70
2019-05-19T10:00:00.238Z,7.70
2019-05-19T10:02:30.940Z,7.63
2019-05-19T10:05:01.654Z,9.03
2019-05-19T10:07:32.721Z,9.60
2019-05-19T10:10:08.300Z,8.93
2019-05-19T10:12:39.025Z,8.50
2019-05-19T10:15:11.220Z,9.27
2019-05-19T10:17:41.957Z,9.53
2019-05-19T10:20:14.159Z,9.23
2019-05-19T10:22:44.841Z,8.50
2019-05-19T10:25:22.109Z,7.73
2019-05-19T10:27:48.065Z,8.20
2019-05-19T10:30:19.160Z,8.53
2019-05-19T10:32:50.311Z,8.27
2019-05-19T10:35:21.064Z,7.73
2019-05-19T10:37:51.841Z,8.53
2019-05-19T10:40:22.656Z,8.13
2019-05-19T10:42:53.383Z,8.30
2019-05-19T10:45:24.169Z,8.10
2019-05-19T10:47:54.965Z,7.77
2019-05-19T10:50:25.752Z,7.90
2019-05-19T10:52:56.509Z,7.10
2019-05-19T10:55:36.130Z,6.73
2019-05-19T10:57:59.656Z,6.70
2019-05-19T11:00:30.538Z,6.30
2019-05-19T11:03:01.345Z,6.73
2019-05-19T11:05:32.121Z,6.77
2019-05-19T11:08:02.777Z,6.70
2019-05-19T11:10:33.595Z,6.50
2019-05-19T11:13:04.370Z,7.50
2019-05-19T11:15:35.148Z,6.77
2019-05-19T11:18:06.585Z,6.67
2019-05-19T11:20:37.501Z,6.07
2019-05-19T11:23:08.245Z,5.70
2019-05-19T11:25:50.685Z,6.07
2019-05-19T11:28:11.410Z,5.80
2019-05-19T11:30:42.145Z,5.00
2019-05-19T11:33:12.924Z,4.70
2019-05-19T11:35:43.718Z,4.47
2019-05-19T11:38:14.507Z,4.30
2019-05-19T11:40:45.309Z,3.70
2019-05-19T11:43:16.077Z,3.87
2019-05-19T11:45:46.832Z,4.67
2019-05-19T11:48:17.585Z,4.60
2019-05-19T11:50:48.336Z,4.57
2019-05-19T11:53:19.076Z,4.77
2019-05-19T11:55:49.819Z,4.83
2019-05-19T11:58:20.495Z,4.60
2019-05-19T12:00:51.241Z,4.40
2019-05-19T12:03:21.907Z,4.27
2019-05-19T12:05:52.614Z,4.90
2019-05-19T12:08:23.470Z,3.87
2019-05-19T12:10:54.239Z,4.45
2019-05-19T12:13:24.976Z,4.85
2019-05-19T12:15:55.931Z,4.28
2019-05-19T12:18:26.698Z,4.30
2019-05-19T12:20:57.483Z,3.75
2019-05-19T12:23:28.199Z,4.20
2019-05-19T12:25:59.034Z,3.27
2019-05-19T12:28:29.784Z,3.55
2019-05-19T12:31:00.566Z,3.83
2019-05-19T12:33:31.274Z,3.77
2019-05-19T12:36:02.011Z,3.37
2019-05-19T12:38:32.674Z,3.15
2019-05-19T12:41:03.410Z,3.87
2019-05-19T12:43:34.142Z,4.10
2019-05-19T12:46:13.638Z,3.40
2019-05-19T12:48:37.343Z,3.50
2019-05-19T12:51:08.119Z,3.95
2019-05-19T12:53:38.977Z,5.08
2019-05-19T12:56:09.663Z,11.57
2019-05-19T12:58:40.390Z,3.75
2019-05-19T13:01:11.147Z,3.27
2019-05-19T13:03:41.962Z,4.17
2019-05-19T13:06:12.707Z,3.90
2019-05-19T13:08:43.515Z,3.60
2019-05-19T13:11:14.294Z,3.40
2019-05-19T13:13:45.100Z,3.10
2019-05-19T13:16:15.895Z,3.90
2019-05-19T13:18:46.678Z,3.25
2019-05-19T13:21:17.477Z,5.58
2019-05-19T13:23:48.223Z,2.45
2019-05-19T13:26:18.991Z,0.53
2019-05-19T13:28:50.631Z,0.20
2019-05-19T13:31:21.372Z,0.30
2019-05-19T13:33:52.109Z,0.37
2019-05-19T13:36:22.905Z,0.30
2019-05-19T13:38:53.642Z,0.33
2019-05-19T13:41:24.428Z,0.37
2019-05-19T13:43:55.174Z,0.30
2019-05-19T13:46:25.941Z,0.62
2019-05-19T13:48:56.738Z,0.20
2019-05-19T13:51:27.600Z,0.40
2019-05-19T13:53:58.351Z,0.20
2019-05-19T13:56:48.191Z,0.95
2019-05-19T13:59:18.949Z,0.10
2019-05-19T14:01:49.753Z,0.30
2019-05-19T14:04:20.463Z,0.20
2019-05-19T14:06:51.236Z,0.40
2019-05-19T14:09:22.047Z,0.75
2019-05-19T14:11:52.889Z,0.45
2019-05-19T14:14:23.655Z,0.33
2019-05-19T14:16:54.472Z,0.20
2019-05-19T14:19:25.322Z,0.47
2019-05-19T14:21:56.444Z,0.45
2019-05-19T14:24:27.141Z,0.65
2019-05-19T14:26:57.972Z,0.30
2019-05-19T14:29:28.704Z,0.85
2019-05-19T14:31:59.480Z,1.02
2019-05-19T14:34:30.210Z,0.70
2019-05-19T14:37:00.973Z,0.10
2019-05-19T14:39:31.784Z,0.30
2019-05-19T14:42:06.136Z,0.20
2019-05-19T14:44:36.903Z,0.55
2019-05-19T14:47:07.719Z,0.45
2019-05-19T14:49:38.425Z,0.20
2019-05-19T14:52:09.243Z,0.30
2019-05-19T14:54:40.118Z,0.50
2019-05-19T14:57:10.864Z,0.30
2019-05-19T14:59:41.632Z,0.93
2019-05-19T15:02:12.367Z,0.10
2019-05-19T15:04:43.133Z,0.60
2019-05-19T15:07:13.880Z,0.30
2019-05-19T15:09:44.679Z,0.50
2019-05-19T15:12:15.485Z,0.43
2019-05-19T15:14:46.309Z,0.20
2019-05-19T15:17:17.015Z,0.40
2019-05-19T15:19:47.880Z,0.67
2019-05-19T15:22:18.664Z,0.30
2019-05-19T15:24:49.893Z,0.17
2019-05-19T15:27:20.600Z,0.20
2019-05-19T15:29:51.419Z,0.40
2019-05-19T15:32:22.133Z,0.40
2019-05-19T15:34:52.908Z,0.10
2019-05-19T15:37:23.626Z,0.10
2019-05-19T15:39:54.434Z,0.37
2019-05-19T15:42:29.340Z,0.30
2019-05-19T15:45:00.127Z,0.17
2019-05-19T15:47:30.872Z,0.37
2019-05-19T15:50:01.667Z,0.20
2019-05-19T15:52:32.425Z,0.40
2019-05-19T15:55:03.265Z,0.30
2019-05-19T15:57:34.019Z,0.40
2019-05-19T16:00:05.611Z,0.60
2019-05-19T16:02:36.370Z,0.57
2019-05-19T16:05:07.369Z,0.33
2019-05-19T16:07:38.144Z,0.20
2019-05-19T16:10:09.762Z,0.10
2019-05-19T16:12:40.498Z,0.20
2019-05-19T16:15:11.862Z,0.50
2019-05-19T16:17:42.618Z,0.20
2019-05-19T16:20:13.607Z,0.27
2019-05-19T16:22:44.397Z,0.60
2019-05-19T16:25:15.404Z,0.40
2019-05-19T16:27:46.114Z,0.40
2019-05-19T16:30:17.312Z,0.30
2019-05-19T16:32:48.079Z,0.40
2019-05-19T16:35:18.925Z,1.10
2019-05-19T16:37:49.660Z,0.43
2019-05-19T16:40:20.434Z,0.40
2019-05-19T16:42:51.307Z,0.53
2019-05-19T16:45:22.479Z,0.40
2019-05-19T16:47:53.216Z,0.53
2019-05-19T16:50:24.022Z,0.30
2019-05-19T16:52:54.790Z,0.77
2019-05-19T16:55:30.318Z,0.50
2019-05-19T16:58:01.070Z,0.43
2019-05-19T17:00:31.848Z,0.60
2019-05-19T17:03:02.655Z,0.40
2019-05-19T17:05:33.420Z,0.97
2019-05-19T17:08:04.168Z,0.60
2019-05-19T17:10:34.953Z,0.43
2019-05-19T17:13:05.690Z,0.33
2019-05-19T17:15:36.476Z,0.30
2019-05-19T17:18:08.308Z,0.20
2019-05-19T17:20:39.158Z,0.50
2019-05-19T17:23:09.932Z,0.60
2019-05-19T17:25:40.694Z,0.40
2019-05-19T17:28:16.713Z,0.70
2019-05-19T17:30:47.477Z,0.33
2019-05-19T17:33:18.153Z,0.40
2019-05-19T17:35:48.918Z,0.40
2019-05-19T17:38:19.634Z,0.53
2019-05-19T17:40:50.411Z,0.83
2019-05-19T17:43:21.158Z,0.30
2019-05-19T17:45:51.974Z,0.70
2019-05-19T17:48:26.356Z,0.20
2019-05-19T17:50:55.138Z,0.23
2019-05-19T17:53:25.963Z,0.20
2019-05-19T17:55:58.242Z,0.50
2019-05-19T17:58:30.397Z,0.53
2019-05-19T18:01:01.224Z,0.60
2019-05-19T18:03:32.181Z,0.40
2019-05-19T18:06:02.979Z,0.60
2019-05-19T18:08:33.727Z,0.90
2019-05-19T18:11:04.483Z,0.30
2019-05-19T18:13:35.268Z,1.10
2019-05-19T18:16:06.056Z,0.70
2019-05-19T18:18:36.880Z,0.40
2019-05-19T18:21:07.646Z,0.87
2019-05-19T18:23:38.420Z,0.43
2019-05-19T18:26:09.178Z,0.63
2019-05-19T18:28:39.954Z,0.33
2019-05-19T18:31:10.790Z,0.63
2019-05-19T18:33:41.567Z,0.50
2019-05-19T18:36:12.303Z,0.30
2019-05-19T18:38:43.088Z,0.63
2019-05-19T18:41:13.846Z,0.30
2019-05-19T18:43:44.613Z,0.70
2019-05-19T18:46:15.348Z,0.27
2019-05-19T18:48:46.186Z,0.40
2019-05-19T18:51:17.012Z,0.60
2019-05-19T18:53:47.850Z,0.27
2019-05-19T18:56:18.628Z,0.60
2019-05-19T18:58:49.440Z,0.50
2019-05-19T19:01:20.238Z,0.53
2019-05-19T19:03:51.052Z,0.40
2019-05-19T19:06:21.808Z,0.30
2019-05-19T19:08:52.609Z,0.50
2019-05-19T19:11:23.385Z,0.30
2019-05-19T19:13:54.284Z,0.30
2019-05-19T19:16:25.095Z,0.37
2019-05-19T19:18:55.971Z,0.47
2019-05-19T19:21:26.678Z,0.30
2019-05-19T19:23:57.434Z,1.27
2019-05-19T19:26:28.230Z,0.50
2019-05-19T19:28:59.017Z,0.20
2019-05-19T19:31:29.804Z,0.30
2019-05-19T19:34:00.575Z,0.50
2019-05-19T19:36:31.358Z,0.23
2019-05-19T19:39:02.203Z,0.63
2019-05-19T19:41:32.958Z,0.30
2019-05-19T19:44:03.836Z,0.47
2019-05-19T19:46:35.541Z,0.53
2019-05-19T19:49:06.339Z,0.33
2019-05-19T19:51:37.095Z,0.67
2019-05-19T19:54:07.840Z,0.60
2019-05-19T19:56:38.606Z,0.47
2019-05-19T19:59:09.384Z,0.40
2019-05-19T20:01:40.170Z,0.37
2019-05-19T20:04:10.946Z,0.50
2019-05-19T20:06:41.711Z,0.30
2019-05-19T20:09:12.539Z,1.67
2019-05-19T20:11:43.326Z,0.30
2019-05-19T20:14:14.131Z,0.50
2019-05-19T20:16:44.877Z,0.50
2019-05-19T20:19:15.694Z,1.00
2019-05-19T20:21:46.450Z,0.50
2019-05-19T20:24:17.217Z,0.40
2019-05-19T20:26:47.914Z,0.47
2019-05-19T20:29:18.719Z,0.87
2019-05-19T20:31:49.456Z,1.03
2019-05-19T20:34:20.233Z,0.50
2019-05-19T20:36:51.021Z,1.03
2019-05-19T20:39:21.775Z,0.83
2019-05-19T20:41:52.541Z,0.43
2019-05-19T20:44:23.319Z,0.63
2019-05-19T20:46:54.055Z,0.70
2019-05-19T20:49:24.871Z,0.87
2019-05-19T20:51:55.637Z,0.50
2019-05-19T20:54:26.383Z,0.97
2019-05-19T20:56:57.120Z,0.50
2019-05-19T20:59:27.916Z,0.50
2019-05-19T21:01:58.676Z,1.13
2019-05-19T21:04:29.423Z,0.33
2019-05-19T21:07:00.155Z,0.30
2019-05-19T21:09:31.890Z,0.50
2019-05-19T21:12:02.632Z,0.43
2019-05-19T21:14:33.389Z,0.40
2019-05-19T21:17:04.143Z,0.40
2019-05-19T21:19:34.928Z,0.43
2019-05-19T21:22:05.675Z,0.63
2019-05-19T21:24:36.451Z,0.63
2019-05-19T21:27:07.187Z,0.87
2019-05-19T21:29:38.194Z,0.50
2019-05-19T21:32:08.940Z,0.60
2019-05-19T21:34:39.627Z,1.30
2019-05-19T21:37:10.404Z,0.40
2019-05-19T21:39:41.120Z,0.20
2019-05-19T21:42:11.877Z,0.47
2019-05-19T21:44:42.672Z,0.60
2019-05-19T21:47:13.494Z,0.83
2019-05-19T21:49:44.235Z,0.33
2019-05-19T21:52:15.051Z,0.60
2019-05-19T21:54:45.798Z,0.60
2019-05-19T21:57:16.594Z,0.50
2019-05-19T21:59:47.360Z,0.33
2019-05-19T22:02:18.156Z,0.47
2019-05-19T22:04:48.913Z,0.20
2019-05-19T22:07:41.836Z,0.33
2019-05-19T22:10:12.891Z,0.43
2019-05-19T22:12:43.668Z,0.67
2019-05-19T22:15:14.554Z,0.40
2019-05-19T22:17:45.319Z,0.30
2019-05-19T22:20:16.164Z,0.53
2019-05-19T22:22:46.945Z,0.90
2019-05-19T22:25:17.658Z,0.63
2019-05-19T22:27:48.416Z,0.60
2019-05-19T22:30:19.382Z,1.07
2019-05-19T22:32:50.138Z,0.57
2019-05-19T22:35:20.944Z,0.70
2019-05-19T22:37:51.701Z,0.70
2019-05-19T22:40:22.518Z,0.47
2019-05-19T22:42:53.384Z,1.00
2019-05-19T22:45:24.079Z,0.53
2019-05-19T22:47:54.893Z,1.53
2019-05-19T22:50:25.642Z,0.97
2019-05-19T22:52:56.382Z,0.87
2019-05-19T22:55:27.167Z,0.97
2019-05-19T22:57:58.882Z,0.83
2019-05-19T23:00:29.628Z,1.07
2019-05-19T23:03:00.419Z,0.87
2019-05-19T23:05:31.181Z,1.13
2019-05-19T23:08:01.969Z,1.20
2019-05-19T23:10:32.675Z,1.00
2019-05-19T23:13:03.481Z,1.43
2019-05-19T23:15:34.234Z,0.70
2019-05-19T23:18:04.987Z,1.13
2019-05-19T23:20:36.651Z,1.10
2019-05-19T23:23:07.427Z,0.70
2019-05-19T23:25:38.113Z,0.77
2019-05-19T23:28:08.818Z,0.90
2019-05-19T23:30:39.538Z,0.93
2019-05-19T23:33:10.263Z,1.37
2019-05-19T23:35:40.993Z,1.97
2019-05-19T23:38:11.751Z,1.77
2019-05-19T23:40:42.452Z,1.20
2019-05-19T23:43:13.147Z,1.40
2019-05-19T23:45:43.824Z,1.10
2019-05-19T23:48:14.502Z,0.90
2019-05-19T23:50:45.297Z,1.30
2019-05-19T23:53:15.965Z,0.97
2019-05-19T23:55:46.601Z,0.80
2019-05-19T23:58:17.844Z,1.10
